createdAt,value
2018-02-20T00:01:08.303Z,58.27
2018-02-20T00:03:36.616Z,53.10
2018-02-20T00:06:04.150Z,57.93
2018-02-20T00:08:31.704Z,62.97
2018-02-20T00:10:59.257Z,60.87
2018-02-20T00:13:26.822Z,67.07
2018-02-20T00:15:54.335Z,60.20
2018-02-20T00:18:21.892Z,61.87
2018-02-20T00:20:49.409Z,61.27
2018-02-20T00:23:16.959Z,53.50
2018-02-20T00:25:45.258Z,61.33
2018-02-20T00:28:13.545Z,64.77
2018-02-20T00:30:41.113Z,60.03
2018-02-20T00:33:09.431Z,58.93
2018-02-20T00:35:36.951Z,54.10
2018-02-20T00:38:04.514Z,57.27
2018-02-20T00:40:32.042Z,55.23
2018-02-20T00:42:59.602Z,56.77
2018-02-20T00:45:27.897Z,60.47
2018-02-20T00:47:55.468Z,55.37
2018-02-20T00:50:23.017Z,54.23
2018-02-20T00:52:50.596Z,49.80
2018-02-20T00:55:18.901Z,58.17
2018-02-20T00:57:47.224Z,53.90
2018-02-20T01:00:14.749Z,55.87
2018-02-20T01:02:43.076Z,57.37
2018-02-20T01:05:10.606Z,57.97
2018-02-20T01:07:38.167Z,59.33
2018-02-20T01:10:05.696Z,57.53
2018-02-20T01:12:33.271Z,64.30
2018-02-20T01:15:00.792Z,58.53
2018-02-20T01:17:28.355Z,59.13
2018-02-20T01:19:55.885Z,61.10
2018-02-20T01:22:23.445Z,69.83
2018-02-20T01:24:50.980Z,60.40
2018-02-20T01:27:18.539Z,60.93
2018-02-20T01:29:46.071Z,69.70
2018-02-20T01:32:13.595Z,65.07
2018-02-20T01:34:41.149Z,58.43
2018-02-20T01:37:08.672Z,60.83
2018-02-20T01:39:36.224Z,66.30
2018-02-20T01:42:04.537Z,63.40
2018-02-20T01:44:32.060Z,75.00
2018-02-20T01:46:59.583Z,62.47
2018-02-20T01:49:27.140Z,62.80
2018-02-20T01:51:55.436Z,70.43
2018-02-20T01:54:22.999Z,62.23
2018-02-20T01:56:51.283Z,68.73
2018-02-20T01:59:19.601Z,74.40
2018-02-20T02:01:47.124Z,75.10
2018-02-20T02:04:14.688Z,75.20
2018-02-20T02:09:33.443Z,73.07
2018-02-20T02:12:00.996Z,65.30
2018-02-20T02:14:29.293Z,63.23
2018-02-20T02:16:57.608Z,78.80
2018-02-20T02:19:25.133Z,80.57
2018-02-20T02:21:53.475Z,74.97
2018-02-20T02:24:21.002Z,72.17
2018-02-20T02:26:48.548Z,77.30
2018-02-20T02:29:16.100Z,76.13
2018-02-20T02:31:43.624Z,68.93
2018-02-20T02:34:11.942Z,89.87
2018-02-20T02:36:39.612Z,97.03
2018-02-20T02:39:07.136Z,94.27
2018-02-20T02:41:34.696Z,99.40
2018-02-20T02:44:02.225Z,88.40
2018-02-20T02:46:29.781Z,88.70
2018-02-20T02:48:58.075Z,89.37
2018-02-20T02:51:26.404Z,90.13
2018-02-20T02:53:53.936Z,80.90
2018-02-20T02:56:22.261Z,79.90
2018-02-20T02:58:49.809Z,86.10
2018-02-20T03:01:17.372Z,83.37
2018-02-20T03:03:45.687Z,72.70
2018-02-20T03:06:13.972Z,74.10
2018-02-20T03:08:41.536Z,77.87
2018-02-20T03:11:09.112Z,74.00
2018-02-20T03:13:36.641Z,89.63
2018-02-20T03:16:04.152Z,77.33
2018-02-20T03:18:31.708Z,77.77
2018-02-20T03:21:00.003Z,73.70
2018-02-20T03:23:28.323Z,69.27
2018-02-20T03:25:55.848Z,75.23
2018-02-20T03:28:23.407Z,91.17
2018-02-20T03:30:50.935Z,71.97
2018-02-20T03:33:18.493Z,79.77
2018-02-20T03:35:46.022Z,89.60
2018-02-20T03:38:13.573Z,72.70
2018-02-20T03:40:41.091Z,71.63
2018-02-20T03:43:09.404Z,76.83
2018-02-20T03:45:36.923Z,78.10
2018-02-20T03:48:04.491Z,83.10
2018-02-20T03:50:32.016Z,80.30
2018-02-20T03:52:59.579Z,80.10
2018-02-20T03:55:27.102Z,82.77
2018-02-20T03:57:54.655Z,79.13
2018-02-20T04:00:22.174Z,79.60
2018-02-20T04:02:50.492Z,68.67
2018-02-20T04:05:18.015Z,77.70
2018-02-20T04:07:45.577Z,77.17
2018-02-20T04:10:13.135Z,74.70
2018-02-20T04:12:40.652Z,77.77
2018-02-20T04:15:08.236Z,81.90
2018-02-20T04:17:36.528Z,95.67
2018-02-20T04:20:04.061Z,92.43
2018-02-20T04:22:31.636Z,90.20
2018-02-20T04:24:59.155Z,91.30
2018-02-20T04:27:26.708Z,105.87
2018-02-20T04:29:55.015Z,98.83
2018-02-20T04:32:22.575Z,97.03
2018-02-20T04:34:50.860Z,88.87
2018-02-20T04:37:19.195Z,88.10
2018-02-20T04:39:46.720Z,105.80
2018-02-20T04:42:14.279Z,97.80
2018-02-20T04:44:41.800Z,89.80
2018-02-20T04:47:09.352Z,76.90
2018-02-20T04:49:37.660Z,82.33
2018-02-20T04:52:05.219Z,87.83
2018-02-20T04:54:32.746Z,99.00
2018-02-20T04:57:00.321Z,91.00
2018-02-20T04:59:27.847Z,79.67
2018-02-20T05:01:55.400Z,82.33
2018-02-20T05:04:23.689Z,93.30
2018-02-20T05:06:52.019Z,88.70
2018-02-20T05:09:19.581Z,95.63
2018-02-20T05:11:47.102Z,95.37
2018-02-20T05:14:14.660Z,98.93
2018-02-20T05:16:42.206Z,112.33
2018-02-20T05:19:10.080Z,91.23
2018-02-20T05:21:37.619Z,92.80
2018-02-20T05:24:05.915Z,93.00
2018-02-20T05:26:34.822Z,100.60
2018-02-20T05:29:02.346Z,84.33
2018-02-20T05:31:29.909Z,97.33
2018-02-20T05:33:57.439Z,96.77
2018-02-20T05:36:25.035Z,100.57
2018-02-20T05:38:52.561Z,121.43
2018-02-20T05:41:20.129Z,93.23
2018-02-20T05:43:47.652Z,98.60
2018-02-20T05:46:15.184Z,90.57
2018-02-20T05:48:43.512Z,94.97
2018-02-20T05:51:11.075Z,99.27
2018-02-20T05:53:38.615Z,103.83
2018-02-20T05:56:06.920Z,96.90
2018-02-20T05:58:35.243Z,87.77
2018-02-20T06:01:02.801Z,99.43
2018-02-20T06:03:30.357Z,88.40
2018-02-20T06:05:57.887Z,87.90
2018-02-20T06:08:25.475Z,78.57
2018-02-20T06:10:53.017Z,70.07
2018-02-20T06:13:20.844Z,75.67
2018-02-20T06:15:49.141Z,79.60
2018-02-20T06:18:17.436Z,82.43
2018-02-20T06:20:45.044Z,87.77
2018-02-20T06:23:12.575Z,82.10
2018-02-20T06:25:40.267Z,88.50
2018-02-20T06:28:07.799Z,89.13
2018-02-20T06:30:35.372Z,94.97
2018-02-20T06:33:02.946Z,88.57
2018-02-20T06:35:30.492Z,102.90
2018-02-20T06:37:58.064Z,111.60
2018-02-20T06:40:25.635Z,86.77
2018-02-20T06:42:53.183Z,87.07
2018-02-20T06:45:20.753Z,107.90
2018-02-20T06:47:48.309Z,84.17
2018-02-20T06:50:15.872Z,88.50
2018-02-20T06:52:44.172Z,100.60
2018-02-20T06:55:11.703Z,115.40
2018-02-20T06:57:39.272Z,111.17
2018-02-20T07:00:06.806Z,103.23
2018-02-20T07:02:34.352Z,121.83
2018-02-20T07:05:01.872Z,105.67
2018-02-20T07:07:29.437Z,107.73
2018-02-20T07:09:56.995Z,95.27
2018-02-20T07:12:24.527Z,94.97
2018-02-20T07:14:52.157Z,95.87
2018-02-20T07:17:19.675Z,93.03
2018-02-20T07:19:47.268Z,83.63
2018-02-20T07:22:14.803Z,86.63
2018-02-20T07:24:42.359Z,60.63
2018-02-20T07:27:09.920Z,58.33
2018-02-20T07:29:37.445Z,58.00
2018-02-20T07:32:05.752Z,58.33
2018-02-20T07:34:33.274Z,60.97
2018-02-20T07:37:00.821Z,58.50
2018-02-20T07:39:28.340Z,47.83
2018-02-20T07:41:55.881Z,50.20
2018-02-20T07:44:23.416Z,46.70
2018-02-20T07:46:50.976Z,49.37
2018-02-20T07:49:18.517Z,43.30
2018-02-20T07:51:46.083Z,45.63
2018-02-20T07:54:13.609Z,45.73
2018-02-20T07:56:41.151Z,46.37
2018-02-20T07:59:08.701Z,47.77
2018-02-20T08:01:36.242Z,46.90
2018-02-20T08:04:03.768Z,45.43
2018-02-20T08:06:32.098Z,41.70
2018-02-20T08:08:59.688Z,42.33
2018-02-20T08:11:27.216Z,39.03
2018-02-20T08:13:54.794Z,44.47
2018-02-20T08:16:22.385Z,46.97
2018-02-20T08:18:49.949Z,44.80
2018-02-20T08:21:17.468Z,46.03
2018-02-20T08:23:45.038Z,43.83
2018-02-20T08:26:12.600Z,42.73
2018-02-20T08:28:40.120Z,42.33
2018-02-20T08:31:07.713Z,46.53
2018-02-20T08:33:35.299Z,44.33
2018-02-20T08:36:02.861Z,44.17
2018-02-20T08:38:30.386Z,44.00
2018-02-20T08:40:57.940Z,41.57
2018-02-20T08:43:25.461Z,42.20
2018-02-20T08:45:53.031Z,42.90
2018-02-20T08:48:21.314Z,40.80
2018-02-20T08:50:48.884Z,42.70
2018-02-20T08:53:17.169Z,41.30
2018-02-20T08:55:45.494Z,41.87
2018-02-20T08:58:13.033Z,43.03
2018-02-20T09:00:40.604Z,44.30
2018-02-20T09:03:08.124Z,47.10
2018-02-20T09:05:35.692Z,46.03
2018-02-20T09:08:03.257Z,47.20
2018-02-20T09:10:30.788Z,44.87
2018-02-20T09:12:59.107Z,44.67
2018-02-20T09:15:26.633Z,44.93
2018-02-20T09:17:54.205Z,45.73
2018-02-20T09:20:21.731Z,50.13
2018-02-20T09:22:49.296Z,48.97
2018-02-20T09:25:16.827Z,50.17
2018-02-20T09:27:44.383Z,47.73
2018-02-20T09:30:11.912Z,48.73
2018-02-20T09:32:39.468Z,46.00
2018-02-20T09:35:07.762Z,45.13
2018-02-20T09:37:35.341Z,45.80
2018-02-20T09:40:02.872Z,49.87
2018-02-20T09:42:30.428Z,50.87
2018-02-20T09:44:57.997Z,51.17
2018-02-20T09:47:25.534Z,49.73
2018-02-20T09:49:53.101Z,48.27
2018-02-20T09:52:20.657Z,41.37
2018-02-20T09:54:49.120Z,51.77
2018-02-20T09:57:16.648Z,47.83
2018-02-20T09:59:44.172Z,50.13
2018-02-20T10:02:11.746Z,47.17
2018-02-20T10:04:39.281Z,48.10
2018-02-20T10:07:06.837Z,49.13
2018-02-20T10:09:34.369Z,52.30
2018-02-20T10:12:01.937Z,50.17
2018-02-20T10:14:29.464Z,52.30
2018-02-20T10:16:57.015Z,48.17
2018-02-20T10:19:24.543Z,46.53
2018-02-20T10:21:52.122Z,48.20
2018-02-20T10:24:19.644Z,54.07
2018-02-20T10:26:47.202Z,54.23
2018-02-20T10:29:14.753Z,49.30
2018-02-20T10:31:43.081Z,47.73
2018-02-20T10:34:10.609Z,43.80
2018-02-20T10:36:38.168Z,50.87
2018-02-20T10:39:05.689Z,48.10
2018-02-20T10:41:33.236Z,54.80
2018-02-20T10:44:00.760Z,46.13
2018-02-20T10:46:28.325Z,63.60
2018-02-20T10:48:55.848Z,52.30
2018-02-20T10:51:23.407Z,48.17
2018-02-20T10:53:50.927Z,49.00
2018-02-20T10:56:18.480Z,46.20
2018-02-20T10:58:46.011Z,47.70
2018-02-20T11:01:13.600Z,45.27
2018-02-20T11:03:41.121Z,42.77
2018-02-20T11:06:08.681Z,37.50
2018-02-20T11:08:36.429Z,41.37
2018-02-20T11:11:03.963Z,41.70
2018-02-20T11:13:31.490Z,37.00
2018-02-20T11:15:59.069Z,34.37
2018-02-20T11:18:26.604Z,34.43
2018-02-20T11:20:54.151Z,40.50
2018-02-20T11:23:21.679Z,38.90
2018-02-20T11:25:50.002Z,41.40
2018-02-20T11:28:17.519Z,39.37
2018-02-20T11:30:45.086Z,35.70
2018-02-20T11:33:12.604Z,38.47
2018-02-20T11:35:40.148Z,42.00
2018-02-20T11:38:08.470Z,39.63
2018-02-20T11:40:36.029Z,40.90
2018-02-20T11:43:03.555Z,46.77
2018-02-20T11:45:31.101Z,42.83
2018-02-20T11:47:58.622Z,44.73
2018-02-20T11:50:26.167Z,48.63
2018-02-20T11:52:54.172Z,40.60
2018-02-20T11:55:21.720Z,47.93
2018-02-20T11:57:49.232Z,39.70
2018-02-20T12:00:17.548Z,40.73
2018-02-20T12:02:45.068Z,36.97
2018-02-20T12:05:12.617Z,36.40
2018-02-20T12:07:40.137Z,42.53
2018-02-20T12:10:07.683Z,47.73
2018-02-20T12:12:35.198Z,42.57
2018-02-20T12:15:02.757Z,44.77
2018-02-20T12:17:30.284Z,42.93
2018-02-20T12:19:57.862Z,41.93
2018-02-20T12:22:25.373Z,41.87
2018-02-20T12:24:52.931Z,41.57
2018-02-20T12:27:21.274Z,47.93
2018-02-20T12:29:48.799Z,43.80
2018-02-20T12:32:17.112Z,47.60
2018-02-20T12:34:44.623Z,45.47
2018-02-20T12:37:12.168Z,48.77
2018-02-20T12:39:39.689Z,54.50
2018-02-20T12:42:07.238Z,48.60
2018-02-20T12:44:34.768Z,40.93
2018-02-20T12:47:02.329Z,50.87
2018-02-20T12:49:29.847Z,43.87
2018-02-20T12:51:57.407Z,45.20
2018-02-20T12:54:24.939Z,39.80
2018-02-20T12:56:52.478Z,41.27
2018-02-20T12:59:20.024Z,44.27
2018-02-20T13:01:47.555Z,41.23
2018-02-20T13:04:15.874Z,37.00
2018-02-20T13:06:43.383Z,31.90
2018-02-20T13:09:10.946Z,36.20
2018-02-20T13:11:38.477Z,37.07
2018-02-20T13:14:06.038Z,40.60
2018-02-20T13:16:33.560Z,38.17
2018-02-20T13:19:01.144Z,38.03
2018-02-20T13:21:28.676Z,35.73
2018-02-20T13:23:56.246Z,43.37
2018-02-20T13:26:23.773Z,33.40
2018-02-20T13:28:52.063Z,35.70
2018-02-20T13:31:19.612Z,36.27
2018-02-20T13:33:47.167Z,37.73
2018-02-20T13:36:14.694Z,61.77
2018-02-20T13:38:42.259Z,80.70
2018-02-20T13:41:09.812Z,53.30
2018-02-20T13:43:37.342Z,42.93
2018-02-20T13:46:04.903Z,40.57
2018-02-20T13:48:32.424Z,50.57
2018-02-20T13:50:59.999Z,39.50
2018-02-20T13:53:27.524Z,46.90
2018-02-20T13:55:55.071Z,38.00
2018-02-20T13:58:23.364Z,44.70
2018-02-20T14:00:50.957Z,47.13
2018-02-20T14:03:18.472Z,43.57
2018-02-20T14:05:46.043Z,47.90
2018-02-20T14:08:13.603Z,51.33
2018-02-20T14:10:41.117Z,44.93
2018-02-20T14:13:09.439Z,39.60
2018-02-20T14:15:36.987Z,49.20
2018-02-20T14:18:04.512Z,44.83
2018-02-20T14:20:32.060Z,44.30
2018-02-20T14:22:59.590Z,43.67
2018-02-20T14:25:27.151Z,42.87
2018-02-20T14:27:54.687Z,42.60
2018-02-20T14:30:22.239Z,44.83
2018-02-20T14:32:49.800Z,41.80
2018-02-20T14:35:18.091Z,43.07
2018-02-20T14:37:46.132Z,47.93
2018-02-20T14:40:13.671Z,49.70
2018-02-20T14:42:41.226Z,46.33
2018-02-20T14:45:08.759Z,46.93
2018-02-20T14:47:36.319Z,47.83
2018-02-20T14:50:03.840Z,44.63
2018-02-20T14:52:31.468Z,45.10
2018-02-20T14:54:58.999Z,47.70
2018-02-20T14:57:26.558Z,43.27
2018-02-20T14:59:54.936Z,45.97
2018-02-20T15:02:23.240Z,48.33
2018-02-20T15:04:50.760Z,45.73
2018-02-20T15:07:18.308Z,52.20
2018-02-20T15:09:45.836Z,47.90
2018-02-20T15:12:14.176Z,51.10
2018-02-20T15:14:41.699Z,51.53
2018-02-20T15:17:09.224Z,48.67
2018-02-20T15:19:36.788Z,46.87
2018-02-20T15:22:04.307Z,57.73
2018-02-20T15:24:31.869Z,53.17
2018-02-20T15:26:59.394Z,55.33
2018-02-20T15:29:26.944Z,50.93
2018-02-20T15:31:54.868Z,48.20
2018-02-20T15:34:22.400Z,57.33
2018-02-20T15:36:50.717Z,65.13
2018-02-20T15:39:18.236Z,63.30
2018-02-20T15:41:45.785Z,56.70
2018-02-20T15:44:13.320Z,54.17
2018-02-20T15:46:40.859Z,59.93
2018-02-20T15:49:09.136Z,67.57
2018-02-20T15:51:36.699Z,73.70
2018-02-20T15:54:04.223Z,63.63
2018-02-20T15:56:31.768Z,68.13
2018-02-20T15:59:00.063Z,72.63
2018-02-20T16:01:28.378Z,67.17
2018-02-20T16:03:55.906Z,73.67
2018-02-20T16:06:23.463Z,82.23
2018-02-20T16:08:51.021Z,80.70
2018-02-20T16:11:18.530Z,83.00
2018-02-20T16:13:46.856Z,86.97
2018-02-20T16:16:24.288Z,82.07
2018-02-20T16:18:51.849Z,78.10
2018-02-20T16:21:19.372Z,84.53
2018-02-20T16:23:47.707Z,91.77
2018-02-20T16:26:15.234Z,79.90
2018-02-20T16:28:43.548Z,79.80
2018-02-20T16:31:11.091Z,82.30
2018-02-20T16:33:38.612Z,84.90
2018-02-20T16:36:06.163Z,84.10
2018-02-20T16:38:33.683Z,84.97
2018-02-20T16:41:01.228Z,87.20
2018-02-20T16:43:28.751Z,85.00
2018-02-20T16:45:56.304Z,86.10
2018-02-20T16:48:23.827Z,73.80
2018-02-20T16:50:51.404Z,84.57
2018-02-20T16:53:18.926Z,82.27
2018-02-20T16:55:46.465Z,103.53
2018-02-20T16:58:14.022Z,78.30
2018-02-20T17:00:41.602Z,80.90
2018-02-20T17:03:09.124Z,97.20
2018-02-20T17:05:36.645Z,92.67
2018-02-20T17:08:04.423Z,81.67
2018-02-20T17:10:31.964Z,73.83
2018-02-20T17:12:59.522Z,60.73
2018-02-20T17:15:27.044Z,60.27
2018-02-20T17:17:54.616Z,49.33
2018-02-20T17:20:22.148Z,50.33
2018-02-20T17:22:49.732Z,53.50
2018-02-20T17:25:18.026Z,46.33
2018-02-20T17:27:46.305Z,48.27
2018-02-20T17:30:13.850Z,48.93
2018-02-20T17:32:41.446Z,44.17
2018-02-20T17:35:08.923Z,48.47
2018-02-20T17:37:36.472Z,47.73
2018-02-20T17:40:03.999Z,44.70
2018-02-20T17:42:31.557Z,51.73
2018-02-20T17:44:59.852Z,47.60
2018-02-20T17:47:27.400Z,41.80
2018-02-20T17:49:54.959Z,48.17
2018-02-20T17:52:22.532Z,51.33
2018-02-20T17:54:50.047Z,53.47
2018-02-20T17:57:17.596Z,48.63
2018-02-20T17:59:45.117Z,50.37
2018-02-20T18:02:12.667Z,48.50
2018-02-20T18:04:40.258Z,54.67
2018-02-20T18:07:07.788Z,45.07
2018-02-20T18:09:36.068Z,45.43
2018-02-20T18:12:03.643Z,45.37
2018-02-20T18:14:31.156Z,50.80
2018-02-20T18:16:58.700Z,54.80
2018-02-20T18:19:26.281Z,47.87
2018-02-20T18:21:53.799Z,50.50
2018-02-20T18:24:21.382Z,46.67
2018-02-20T18:26:48.936Z,49.00
2018-02-20T18:29:16.447Z,62.20
2018-02-20T18:31:43.997Z,55.63
2018-02-20T18:34:11.526Z,52.80
2018-02-20T18:36:39.094Z,69.50
2018-02-20T18:39:06.651Z,58.80
2018-02-20T18:41:34.968Z,51.37
2018-02-20T18:44:02.481Z,48.90
2018-02-20T18:46:30.078Z,48.47
2018-02-20T18:48:57.632Z,54.60
2018-02-20T18:51:25.202Z,51.80
2018-02-20T18:53:52.855Z,56.63
2018-02-20T18:56:20.403Z,59.80
2018-02-20T18:58:47.932Z,55.97
2018-02-20T19:01:15.488Z,59.20
2018-02-20T19:03:43.009Z,55.97
2018-02-20T19:06:10.580Z,65.97
2018-02-20T19:08:38.144Z,66.20
2018-02-20T19:11:05.673Z,69.67
2018-02-20T19:13:33.246Z,63.13
2018-02-20T19:16:00.780Z,67.47
2018-02-20T19:18:28.320Z,60.13
2018-02-20T19:20:56.759Z,62.20
2018-02-20T19:23:24.292Z,65.07
2018-02-20T19:25:51.861Z,60.53
2018-02-20T19:28:20.152Z,61.00
2018-02-20T19:30:48.464Z,59.77
2018-02-20T19:33:16.024Z,69.43
2018-02-20T19:35:43.573Z,68.83
2018-02-20T19:38:12.110Z,62.50
2018-02-20T19:40:39.659Z,68.17
2018-02-20T19:43:07.976Z,65.63
2018-02-20T19:45:35.554Z,76.87
2018-02-20T19:48:03.096Z,73.97
2018-02-20T19:50:31.421Z,82.40
2018-02-20T19:52:58.949Z,87.80
2018-02-20T19:55:27.289Z,77.23
2018-02-20T19:57:54.887Z,76.10
2018-02-20T20:00:22.910Z,80.37
2018-02-20T20:02:50.384Z,76.07
2018-02-20T20:05:18.035Z,79.93
2018-02-20T20:07:46.324Z,76.40
2018-02-20T20:10:13.896Z,78.90
2018-02-20T20:12:41.521Z,82.73
2018-02-20T20:15:09.185Z,81.07
2018-02-20T20:17:36.884Z,87.87
2018-02-20T20:20:04.579Z,93.50
2018-02-20T20:22:32.187Z,82.60
2018-02-20T20:25:00.000Z,83.97
2018-02-20T20:27:27.838Z,74.30
2018-02-20T20:29:55.515Z,75.97
2018-02-20T20:32:23.084Z,77.27
2018-02-20T20:34:51.405Z,81.13
2018-02-20T20:37:18.966Z,80.70
2018-02-20T20:39:46.503Z,85.60
2018-02-20T20:42:14.061Z,82.73
2018-02-20T20:44:41.731Z,77.43
2018-02-20T20:47:09.364Z,79.07
2018-02-20T20:49:36.897Z,82.97
2018-02-20T20:52:04.476Z,80.07
2018-02-20T20:54:32.767Z,85.67
2018-02-20T20:57:00.332Z,81.27
2018-02-20T20:59:27.983Z,78.93
2018-02-20T21:01:55.563Z,83.27
2018-02-20T21:04:23.916Z,79.07
2018-02-20T21:06:51.572Z,84.40
2018-02-20T21:09:19.866Z,89.27
2018-02-20T21:11:47.452Z,87.17
2018-02-20T21:14:14.991Z,81.63
2018-02-20T21:16:42.568Z,86.03
2018-02-20T21:19:10.868Z,83.37
2018-02-20T21:21:40.127Z,85.43
2018-02-20T21:24:07.673Z,89.10
2018-02-20T21:26:35.231Z,86.60
2018-02-20T21:29:03.519Z,88.03
2018-02-20T21:31:31.840Z,84.80
2018-02-20T21:33:59.371Z,90.23
2018-02-20T21:36:27.703Z,92.53
2018-02-20T21:38:55.360Z,86.57
2018-02-20T21:41:22.926Z,81.10
2018-02-20T21:43:50.455Z,93.83
2018-02-20T21:46:18.014Z,87.53
2018-02-20T21:48:45.544Z,98.63
2018-02-20T21:51:13.136Z,102.47
2018-02-20T21:53:40.663Z,94.03
2018-02-20T21:56:08.224Z,110.03
2018-02-20T21:58:35.782Z,105.37
2018-02-20T22:01:03.348Z,107.63
2018-02-20T22:03:30.876Z,122.07
2018-02-20T22:05:58.453Z,103.77
2018-02-20T22:08:25.996Z,109.07
2018-02-20T22:10:53.576Z,109.97
2018-02-20T22:13:21.120Z,102.27
2018-02-20T22:15:48.692Z,109.93
2018-02-20T22:18:16.219Z,104.63
2018-02-20T22:20:43.803Z,89.53
2018-02-20T22:23:11.328Z,100.43
2018-02-20T22:25:38.852Z,103.17
2018-02-20T22:28:06.403Z,109.13
2018-02-20T22:30:33.956Z,105.43
2018-02-20T22:33:01.477Z,95.37
2018-02-20T22:35:29.035Z,116.10
2018-02-20T22:37:56.575Z,101.83
2018-02-20T22:40:24.899Z,118.17
2018-02-20T22:42:52.427Z,102.57
2018-02-20T22:45:19.991Z,113.70
2018-02-20T22:47:47.522Z,94.07
2018-02-20T22:50:15.099Z,111.60
2018-02-20T22:52:42.658Z,102.97
2018-02-20T22:55:10.212Z,102.20
2018-02-20T22:57:37.740Z,100.77
2018-02-20T23:00:05.358Z,97.17
2018-02-20T23:02:33.657Z,113.90
2018-02-20T23:05:01.228Z,114.77
2018-02-20T23:07:28.781Z,106.50
2018-02-20T23:09:56.368Z,110.43
2018-02-20T23:12:23.887Z,111.23
2018-02-20T23:14:51.424Z,110.80
2018-02-20T23:17:18.983Z,103.57
2018-02-20T23:19:47.283Z,111.33
2018-02-20T23:22:14.858Z,105.00
2018-02-20T23:24:42.395Z,120.20
2018-02-20T23:27:09.952Z,117.57
2018-02-20T23:29:37.503Z,106.10
2018-02-20T23:32:05.037Z,99.40
2018-02-20T23:34:32.580Z,115.43
2018-02-20T23:37:00.108Z,108.43
2018-02-20T23:39:27.691Z,100.43
2018-02-20T23:41:55.249Z,119.73
2018-02-20T23:44:22.820Z,124.67
2018-02-20T23:46:50.344Z,126.53
2018-02-20T23:49:18.708Z,112.83
2018-02-20T23:51:46.246Z,129.20
2018-02-20T23:54:13.816Z,130.03
2018-02-20T23:56:41.340Z,154.23
2018-02-20T23:59:08.915Z,129.77
